Time;durP1;ratioP1;P1;durP2;ratioP2;P2;SDS_P1;SDS_P2;PMS_P1;PMS_P2;Temp;Humidity;BMP_temperature;BMP_pressure;BME280_temperature;BME280_humidity;BME280_pressure;Samples;Min_cycle;Max_cycle;Signal;HPM_P1;HPM_P2
2023/07/27 00:01:00;;;;;;;9.65;4.57;;;;;;;30.20;33.92;97620.56;5074243;28;20028;-71
2023/07/27 00:03:25;;;;;;;9.32;4.40;;;;;;;30.22;34.15;97629.16;5056772;28;20040;-71
2023/07/27 00:05:51;;;;;;;7.65;4.47;;;;;;;30.20;33.70;97617.88;5072926;28;20495;-71
2023/07/27 00:08:16;;;;;;;7.13;4.53;;;;;;;30.22;33.54;97621.09;5074120;28;20108;-70
2023/07/27 00:10:42;;;;;;;9.20;4.43;;;;;;;30.23;33.46;97617.31;5039241;28;20041;-72
2023/07/27 00:13:07;;;;;;;10.68;4.35;;;;;;;30.20;33.73;97609.78;5056329;28;20067;-72
2023/07/27 00:15:33;;;;;;;6.30;4.18;;;;;;;30.19;33.44;97613.56;5056073;28;20040;-72
2023/07/27 00:17:58;;;;;;;6.20;3.97;;;;;;;30.22;33.73;97615.69;5072824;28;20040;-72
2023/07/27 00:20:24;;;;;;;7.05;3.97;;;;;;;30.19;33.71;97602.78;5073046;28;20043;-72
2023/07/27 00:22:49;;;;;;;6.97;3.67;;;;;;;30.22;33.12;97621.09;5056037;28;20058;-72
2023/07/27 00:25:15;;;;;;;6.15;3.65;;;;;;;30.19;33.24;97617.06;5073930;28;20042;-72
2023/07/27 00:27:40;;;;;;;5.50;3.38;;;;;;;30.20;33.14;97620.56;5073012;28;20033;-72
2023/07/27 00:30:06;;;;;;;6.63;3.40;;;;;;;30.18;33.30;97615.44;5074060;28;20033;-72
2023/07/27 00:32:32;;;;;;;5.18;3.42;;;;;;;30.17;33.33;97627.28;5072415;28;20020;-72
2023/07/27 00:34:57;;;;;;;7.68;3.40;;;;;;;30.18;33.02;97620.81;5072522;28;20094;-72
2023/07/27 00:37:23;;;;;;;4.90;3.33;;;;;;;30.18;32.92;97628.09;5072346;28;20033;-72
2023/07/27 00:39:48;;;;;;;5.28;3.33;;;;;;;30.18;33.31;97634.28;5055000;28;20105;-72
2023/07/27 00:42:14;;;;;;;8.20;3.47;;;;;;;30.18;32.73;97636.97;5073633;28;20063;-78
2023/07/27 00:44:39;;;;;;;7.22;3.00;;;;;;;30.18;33.12;97641.56;5072281;28;20033;-72
2023/07/27 00:47:05;;;;;;;4.90;3.00;;;;;;;30.13;32.89;97643.16;5073474;28;20032;-72
2023/07/27 00:49:30;;;;;;;6.97;3.05;;;;;;;30.17;32.86;97648.00;5055157;28;20075;-72
2023/07/27 00:51:56;;;;;;;7.38;2.95;;;;;;;30.11;32.82;97652.59;5055215;28;20031;-72
2023/07/27 00:54:21;;;;;;;7.18;3.15;;;;;;;30.10;32.82;97643.72;5038753;28;20060;-70
2023/07/27 00:56:47;;;;;;;5.03;3.00;;;;;;;30.04;33.12;97644.78;5055720;28;20121;-72
2023/07/27 00:59:13;;;;;;;4.63;2.80;;;;;;;30.08;33.08;97653.16;5072091;28;20043;-76
2023/07/27 01:01:39;;;;;;;4.80;3.05;;;;;;;30.08;33.11;97655.84;5063982;28;20020;-76
2023/07/27 01:04:04;;;;;;;3.80;2.70;;;;;;;30.06;33.05;97652.59;5091744;28;20471;-75
2023/07/27 01:06:30;;;;;;;4.70;2.97;;;;;;;30.04;33.24;97660.13;5074967;28;20039;-75
2023/07/27 01:08:55;;;;;;;5.85;2.85;;;;;;;30.04;33.03;97670.91;5093089;28;20063;-75
2023/07/27 01:11:27;;;;;;;6.95;2.85;;;;;;;30.02;32.93;97663.09;5074831;28;20032;-78
2023/07/27 01:14:35;;;;;;;5.07;2.65;;;;;;;30.01;33.25;97683.00;5091888;28;20182;-77
2023/07/27 01:17:41;;;;;;;5.22;3.10;;;;;;;29.98;32.89;97678.16;5070247;28;20040;-75
2023/07/27 01:20:15;;;;;;;8.65;2.60;;;;;;;29.92;32.98;97671.16;5011152;28;20038;-78
2023/07/27 01:23:23;;;;;;;6.30;2.97;;;;;;;29.92;33.50;97680.06;4993238;28;20038;-77
2023/07/27 01:25:53;;;;;;;5.57;2.58;;;;;;;29.88;33.35;97678.97;4994186;28;20026;-78
2023/07/27 01:28:29;;;;;;;4.30;2.70;;;;;;;29.86;33.37;97680.31;4994511;28;20578;-77
2023/07/27 01:31:08;;;;;;;3.72;2.40;;;;;;;29.81;33.32;97670.38;5010732;28;20040;-78
2023/07/27 01:33:37;;;;;;;3.72;2.53;;;;;;;29.75;33.42;97672.19;4994089;28;20135;-77
2023/07/27 01:36:02;;;;;;;6.13;2.78;;;;;;;29.76;33.39;97686.44;5010467;28;20042;-77
2023/07/27 01:38:28;;;;;;;4.38;2.40;;;;;;;29.71;33.32;97689.94;5010496;28;20091;-76
2023/07/27 01:40:54;;;;;;;5.65;2.70;;;;;;;29.69;33.62;97680.53;5010733;28;20073;-77
2023/07/27 01:43:19;;;;;;;5.03;2.78;;;;;;;29.69;33.37;97685.91;5001364;28;20042;-78
2023/07/27 01:45:45;;;;;;;6.25;2.50;;;;;;;29.67;33.43;97682.69;5003223;28;20060;-76
2023/07/27 01:48:10;;;;;;;4.68;2.70;;;;;;;29.65;33.58;97684.81;5004225;28;20053;-77
2023/07/27 01:50:36;;;;;;;4.65;2.80;;;;;;;29.62;33.44;97683.50;4993891;28;20033;-76
2023/07/27 01:53:01;;;;;;;4.25;2.83;;;;;;;29.61;33.42;97692.63;5001124;28;20068;-75
2023/07/27 01:55:27;;;;;;;4.57;2.65;;;;;;;29.57;33.67;97691.53;5063356;28;20048;-75
2023/07/27 01:57:52;;;;;;;4.28;2.53;;;;;;;29.60;33.66;97693.69;5054176;28;20044;-75
2023/07/27 02:00:18;;;;;;;4.45;2.65;;;;;;;29.56;33.30;97679.19;5071173;28;20032;-76
2023/07/27 02:02:44;;;;;;;5.00;2.80;;;;;;;29.58;33.52;97685.88;5079045;28;20051;-75
2023/07/27 02:05:09;;;;;;;3.78;2.60;;;;;;;29.58;33.33;97693.94;5067723;28;20414;-76
2023/07/27 02:07:35;;;;;;;6.05;2.42;;;;;;;29.59;33.45;97700.16;5091412;28;20475;-76
2023/07/27 02:10:01;;;;;;;4.88;2.50;;;;;;;29.56;33.62;97704.19;5056584;28;20036;-76
2023/07/27 02:12:29;;;;;;;4.90;2.30;;;;;;;29.56;33.55;97695.31;5082120;28;20517;-76
2023/07/27 02:15:02;;;;;;;6.07;2.70;;;;;;;29.56;33.35;97706.88;5074425;28;20196;-77
2023/07/27 02:17:35;;;;;;;4.95;2.55;;;;;;;29.55;33.36;97707.13;5091312;28;20031;-75
2023/07/27 02:20:01;;;;;;;3.78;2.42;;;;;;;29.56;33.83;97703.38;5091310;28;20032;-76
2023/07/27 02:22:26;;;;;;;5.75;2.28;;;;;;;29.55;33.43;97709.81;5057291;28;20032;-76
2023/07/27 02:24:52;;;;;;;4.70;2.20;;;;;;;29.51;33.25;97714.09;5074283;28;20028;-76
2023/07/27 02:27:17;;;;;;;5.05;2.40;;;;;;;29.52;33.05;97719.22;5074373;28;20441;-76
2023/07/27 02:29:43;;;;;;;5.07;2.20;;;;;;;29.51;33.49;97706.03;5074388;28;20040;-76
2023/07/27 02:32:08;;;;;;;4.78;2.22;;;;;;;29.47;33.58;97705.75;5088859;28;20419;-75
2023/07/27 02:34:34;;;;;;;5.32;2.22;;;;;;;29.48;33.01;97723.53;5070403;28;20051;-72
2023/07/27 02:36:59;;;;;;;6.50;2.58;;;;;;;29.18;32.20;97718.81;5087376;28;20064;-72
2023/07/27 02:39:25;;;;;;;6.93;2.35;;;;;;;28.95;32.90;97710.09;5087818;28;20048;-73
2023/07/27 02:41:50;;;;;;;3.53;2.20;;;;;;;28.77;32.49;97722.13;5087911;28;20466;-73
2023/07/27 02:44:16;;;;;;;7.95;2.30;;;;;;;28.65;32.69;97738.41;5070690;28;20029;-72
2023/07/27 02:46:41;;;;;;;8.57;2.33;;;;;;;28.51;33.24;97748.78;5071795;28;20109;-73
2023/07/27 02:49:07;;;;;;;4.95;2.38;;;;;;;28.26;32.65;97753.94;5070304;28;20040;-76
2023/07/27 02:51:32;;;;;;;6.80;2.70;;;;;;;28.01;33.79;97754.53;5060010;28;20039;-74
2023/07/27 02:53:58;;;;;;;10.52;2.47;;;;;;;27.93;34.31;97761.16;5090282;28;20040;-74
2023/07/27 02:56:24;;;;;;;3.65;2.13;;;;;;;28.02;34.23;97753.47;5090850;28;20479;-74
2023/07/27 02:58:50;;;;;;;12.35;2.75;;;;;;;28.00;35.25;97758.28;5073980;28;20035;-73
2023/07/27 03:01:15;;;;;;;4.80;2.53;;;;;;;28.07;34.88;97764.22;5056238;28;20028;-73
2023/07/27 03:03:41;;;;;;;5.15;2.42;;;;;;;28.11;35.26;97773.41;5081162;28;20102;-76
2023/07/27 03:06:06;;;;;;;6.05;2.40;;;;;;;28.21;35.36;97772.69;5054254;28;20040;-82
2023/07/27 03:08:32;;;;;;;3.63;2.03;;;;;;;28.26;34.98;97784.28;5087721;28;20025;-81
2023/07/27 03:11:02;;;;;;;6.93;2.20;;;;;;;28.19;34.82;97782.88;5076019;28;20515;-76
2023/07/27 03:13:27;;;;;;;5.78;2.35;;;;;;;28.16;35.52;97794.91;5076650;28;20086;-76
2023/07/27 03:15:53;;;;;;;4.80;2.30;;;;;;;28.20;35.33;97784.50;5071565;28;20483;-79
2023/07/27 03:18:20;;;;;;;6.25;2.90;;;;;;;28.30;35.52;97800.66;5056267;28;20446;-74
2023/07/27 03:20:45;;;;;;;4.30;2.10;;;;;;;28.42;35.16;97800.50;5073870;28;20099;-72
2023/07/27 03:23:11;;;;;;;12.40;2.63;;;;;;;28.52;35.18;97795.22;5074102;28;20035;-73
2023/07/27 03:25:37;;;;;;;4.40;2.10;;;;;;;28.49;33.47;97788.47;5070961;28;20457;-73
2023/07/27 03:28:03;;;;;;;5.75;2.58;;;;;;;28.50;34.46;97791.97;5077234;28;20036;-73
2023/07/27 03:30:28;;;;;;;3.15;2.20;;;;;;;28.49;33.76;97795.72;5076313;28;20103;-73
2023/07/27 03:32:54;;;;;;;3.80;2.03;;;;;;;28.43;33.35;97797.56;5111761;28;20024;-73
2023/07/27 03:35:19;;;;;;;6.63;2.28;;;;;;;28.51;33.94;97815.06;5077258;28;20035;-73
2023/07/27 03:37:45;;;;;;;3.72;2.35;;;;;;;28.62;33.48;97824.88;5110228;28;20518;-73
2023/07/27 03:40:11;;;;;;;6.35;2.30;;;;;;;28.67;33.47;97813.34;5076978;28;20027;-73
2023/07/27 03:42:36;;;;;;;4.13;2.20;;;;;;;28.57;33.57;97813.25;5110999;28;20031;-73
2023/07/27 03:45:02;;;;;;;5.45;2.22;;;;;;;28.53;33.15;97818.31;5093557;28;20051;-73
2023/07/27 03:47:27;;;;;;;5.90;2.58;;;;;;;28.24;33.50;97823.16;5076457;28;20035;-73
2023/07/27 03:49:53;;;;;;;3.67;2.30;;;;;;;28.24;33.38;97837.38;5093888;28;20406;-73
2023/07/27 03:52:18;;;;;;;3.45;2.30;;;;;;;28.28;33.66;97837.69;5093510;28;20501;-73
2023/07/27 03:54:44;;;;;;;8.60;2.85;;;;;;;28.36;33.38;97839.09;5093727;28;20045;-73
2023/07/27 03:57:09;;;;;;;3.83;2.13;;;;;;;28.31;32.69;97850.59;5093645;28;20098;-73
2023/07/27 03:59:35;;;;;;;3.88;2.40;;;;;;;28.32;33.23;97858.41;5076357;28;20097;-73
2023/07/27 04:02:00;;;;;;;4.32;2.10;;;;;;;28.33;33.40;97848.47;5094788;28;20028;-73
2023/07/27 04:04:25;;;;;;;3.42;2.22;;;;;;;28.33;33.07;97848.47;5095136;28;20051;-76
2023/07/27 04:06:51;;;;;;;8.50;2.00;;;;;;;28.43;33.11;97855.78;5093842;28;20032;-73
2023/07/27 04:09:17;;;;;;;3.17;2.15;;;;;;;28.36;33.26;97852.53;5093424;28;20047;-73
2023/07/27 04:11:42;;;;;;;4.10;2.20;;;;;;;28.36;32.99;97863.25;5092835;28;20065;-73
2023/07/27 04:14:08;;;;;;;4.63;2.30;;;;;;;28.36;32.57;97863.25;5093009;28;20036;-72
2023/07/27 04:16:33;;;;;;;3.35;1.90;;;;;;;28.27;32.34;97866.38;5094966;28;20028;-73
2023/07/27 04:18:58;;;;;;;4.75;1.90;;;;;;;28.21;32.13;97859.38;5094293;28;20086;-73
2023/07/27 04:21:24;;;;;;;4.85;1.85;;;;;;;28.29;32.82;97871.50;5093487;28;20031;-73
2023/07/27 04:23:49;;;;;;;2.53;1.80;;;;;;;28.31;32.44;97856.75;5109861;28;20044;-72
2023/07/27 04:26:15;;;;;;;4.80;1.90;;;;;;;28.27;31.75;97860.22;5092642;28;20389;-73
2023/07/27 04:28:40;;;;;;;3.72;2.00;;;;;;;28.16;32.32;97853.94;5094140;28;20039;-73
2023/07/27 04:31:06;;;;;;;4.10;2.30;;;;;;;28.23;32.50;97862.59;5092716;28;20469;-74
2023/07/27 04:33:31;;;;;;;5.70;2.05;;;;;;;28.17;32.07;97874.34;5109643;28;20028;-73
2023/07/27 04:35:59;;;;;;;5.53;2.15;;;;;;;28.04;32.54;97882.75;5092734;28;20595;-73
2023/07/27 04:38:24;;;;;;;4.88;1.75;;;;;;;28.01;33.09;97881.41;5075349;28;20047;-72
2023/07/27 04:40:51;;;;;;;5.85;2.45;;;;;;;28.19;33.14;97890.19;5092700;28;20032;-72
2023/07/27 04:43:17;;;;;;;3.70;1.77;;;;;;;28.24;32.68;97887.53;5092466;28;20114;-73
2023/07/27 04:45:42;;;;;;;4.40;1.88;;;;;;;28.34;32.56;97888.47;5093824;28;20028;-72
2023/07/27 04:48:08;;;;;;;3.35;1.92;;;;;;;28.45;32.21;97880.50;5109621;28;20032;-73
2023/07/27 04:50:34;;;;;;;3.72;1.83;;;;;;;28.47;31.71;97876.50;5092296;28;20127;-72
2023/07/27 04:52:59;;;;;;;4.70;1.77;;;;;;;28.49;31.61;97860.94;5092593;28;20110;-72
2023/07/27 04:55:24;;;;;;;3.72;1.63;;;;;;;28.43;31.98;97848.56;5109528;28;20024;-72
2023/07/27 04:57:50;;;;;;;4.40;1.90;;;;;;;28.51;31.98;97839.22;5092414;28;20460;-72
2023/07/27 05:00:16;;;;;;;2.55;1.48;;;;;;;28.54;31.59;97830.66;5093003;28;20031;-72
2023/07/27 05:02:41;;;;;;;2.15;1.40;;;;;;;28.54;31.78;97836.03;5093509;28;20544;-74
2023/07/27 05:05:07;;;;;;;2.28;1.50;;;;;;;28.61;31.58;97827.81;5092559;28;20483;-74
2023/07/27 05:07:32;;;;;;;6.93;1.50;;;;;;;28.44;31.78;97835.94;5108861;28;20043;-76
2023/07/27 05:09:58;;;;;;;3.30;1.58;;;;;;;28.34;32.18;97831.31;5109007;28;20032;-74
2023/07/27 05:12:23;;;;;;;3.70;1.70;;;;;;;28.27;32.16;97849.47;5088032;28;20039;-73
2023/07/27 05:14:50;;;;;;;2.88;1.65;;;;;;;28.11;32.08;97868.09;5083169;28;20039;-74
2023/07/27 05:17:16;;;;;;;3.08;2.03;;;;;;;27.78;31.84;97877.91;5092141;28;20020;-74
2023/07/27 05:19:41;;;;;;;5.20;1.70;;;;;;;27.79;32.77;97871.47;5093197;28;20028;-74
2023/07/27 05:22:07;;;;;;;3.22;1.90;;;;;;;27.82;32.35;97864.81;5075257;28;20109;-74
2023/07/27 05:24:32;;;;;;;4.93;1.95;;;;;;;27.42;33.05;97860.53;5091864;28;20039;-74
2023/07/27 05:26:58;;;;;;;11.18;1.77;;;;;;;27.53;34.05;97869.53;5092018;28;20459;-78
2023/07/27 05:29:23;;;;;;;3.67;1.73;;;;;;;27.57;34.34;97857.25;5075133;28;20092;-75
2023/07/27 05:31:49;;;;;;;4.93;1.88;;;;;;;27.76;34.31;97866.59;5091698;28;20035;-76
2023/07/27 05:34:14;;;;;;;5.00;1.80;;;;;;;27.91;34.78;97876.72;5074857;28;20035;-76
2023/07/27 05:36:40;;;;;;;8.95;1.98;;;;;;;27.87;36.02;97886.31;5097536;28;20399;-76
2023/07/27 05:39:05;;;;;;;6.47;2.20;;;;;;;27.71;36.93;97882.63;5073919;28;20082;-76
2023/07/27 05:41:31;;;;;;;6.28;1.92;;;;;;;27.40;37.72;97884.09;5091797;28;20475;-77
2023/07/27 05:43:56;;;;;;;6.35;1.67;;;;;;;27.16;38.32;97878.91;5074696;28;20036;-76
2023/07/27 05:46:22;;;;;;;4.25;1.70;;;;;;;26.89;38.65;97884.94;5074180;28;20491;-75
2023/07/27 05:48:47;;;;;;;6.35;1.33;;;;;;;26.94;38.39;97912.84;5074535;28;20556;-75
2023/07/27 05:51:12;;;;;;;3.85;1.30;;;;;;;26.83;37.93;97922.59;5092930;28;20024;-76
2023/07/27 05:53:38;;;;;;;4.70;1.40;;;;;;;26.84;37.56;97911.63;5092556;28;20434;-73
2023/07/27 05:56:03;;;;;;;6.43;1.25;;;;;;;26.81;37.45;97914.78;5092511;28;20047;-74
2023/07/27 05:58:29;;;;;;;2.38;1.00;;;;;;;26.69;36.72;97930.09;5091781;28;20099;-80
2023/07/27 06:01:01;;;;;;;2.85;1.00;;;;;;;26.46;37.36;97952.44;5074854;28;20419;-81
2023/07/27 06:03:28;;;;;;;1.95;0.98;;;;;;;26.47;37.40;97956.72;5091262;28;20044;-80
2023/07/27 06:05:54;;;;;;;2.07;0.80;;;;;;;26.45;36.97;97943.56;5091694;28;20463;-82
2023/07/27 06:08:19;;;;;;;2.30;0.90;;;;;;;26.49;36.31;97934.03;5057694;28;20036;-80
2023/07/27 06:10:45;;;;;;;3.38;0.77;;;;;;;26.58;36.65;97930.94;5056792;28;20487;-79
2023/07/27 06:13:10;;;;;;;1.92;0.80;;;;;;;26.54;33.76;97927.94;5091502;28;20059;-81
2023/07/27 06:15:36;;;;;;;3.78;0.65;;;;;;;26.52;35.16;97932.75;5057855;28;20489;-80
2023/07/27 06:18:02;;;;;;;3.67;0.57;;;;;;;26.62;33.98;97926.75;5068234;28;20122;-81
2023/07/27 06:20:27;;;;;;;1.67;0.70;;;;;;;26.70;34.71;97926.38;5075628;28;20025;-76
2023/07/27 06:22:53;;;;;;;4.90;0.70;;;;;;;26.78;34.56;97935.88;5069328;28;20051;-76
2023/07/27 06:25:18;;;;;;;1.25;0.47;;;;;;;26.85;34.20;97940.03;5090436;28;20073;-78
2023/07/27 06:27:44;;;;;;;0.70;0.40;;;;;;;26.98;33.75;97951.47;5073347;28;20121;-79
2023/07/27 06:30:09;;;;;;;4.05;0.57;;;;;;;27.03;32.64;97951.56;5108615;28;20376;-73
2023/07/27 06:32:35;;;;;;;1.17;0.50;;;;;;;27.20;32.63;97963.09;5073676;28;20036;-73
2023/07/27 06:35:01;;;;;;;1.60;0.50;;;;;;;27.32;32.01;97956.88;5092323;28;20020;-72
2023/07/27 06:37:26;;;;;;;6.00;0.60;;;;;;;27.36;32.50;97955.34;5091013;28;20031;-77
2023/07/27 06:39:51;;;;;;;5.13;0.80;;;;;;;27.24;32.50;97948.16;5091890;28;20487;-74
2023/07/27 06:42:17;;;;;;;2.63;0.60;;;;;;;27.51;31.60;97952.06;5108635;28;20036;-75
2023/07/27 06:44:43;;;;;;;1.70;0.75;;;;;;;27.77;31.24;97956.72;5090866;28;20506;-73
2023/07/27 06:47:08;;;;;;;1.75;0.60;;;;;;;27.98;31.00;97951.66;5108103;28;20089;-71
2023/07/27 06:49:34;;;;;;;3.03;0.70;;;;;;;28.35;30.40;97951.00;5091793;28;20471;-73
2023/07/27 06:51:59;;;;;;;1.98;0.50;;;;;;;28.32;30.51;97959.53;5094699;28;20471;-71
2023/07/27 06:54:25;;;;;;;1.25;0.50;;;;;;;28.26;30.65;97969.41;5094776;28;20028;-72
2023/07/27 06:56:50;;;;;;;2.28;0.70;;;;;;;28.27;29.37;97960.28;5111463;28;20032;-71
2023/07/27 06:59:16;;;;;;;0.80;0.40;;;;;;;28.15;28.86;97955.06;5094685;28;20047;-72
2023/07/27 07:01:41;;;;;;;1.80;0.60;;;;;;;28.18;30.09;97979.78;5094367;28;20036;-71
2023/07/27 07:04:07;;;;;;;4.97;0.40;;;;;;;28.17;29.57;97972.81;5094601;28;20052;-72
2023/07/27 07:06:33;;;;;;;1.75;0.60;;;;;;;28.20;29.89;97975.78;5111659;28;20090;-73
2023/07/27 07:08:59;;;;;;;5.00;0.60;;;;;;;28.30;30.35;97972.41;5048375;28;20452;-73
2023/07/27 07:11:24;;;;;;;5.35;0.70;;;;;;;28.39;30.15;97957.47;5093179;28;20047;-72
2023/07/27 07:13:50;;;;;;;3.75;0.93;;;;;;;28.54;29.09;97961.38;5094430;28;20449;-72
2023/07/27 07:16:15;;;;;;;3.30;0.70;;;;;;;28.51;27.10;97960.00;5094352;28;20047;-71
2023/07/27 07:18:41;;;;;;;4.60;0.77;;;;;;;28.75;29.46;97949.81;5096027;28;20487;-75
2023/07/27 07:21:07;;;;;;;15.07;1.52;;;;;;;29.18;29.19;97939.97;5082009;28;20035;-80
2023/07/27 07:23:32;;;;;;;5.97;1.17;;;;;;;29.73;29.06;97942.47;5060595;28;20509;-85
2023/07/27 07:25:58;;;;;;;3.45;0.70;;;;;;;29.85;28.55;97936.94;5078540;28;20043;-78
2023/07/27 07:28:23;;;;;;;5.82;0.80;;;;;;;30.82;26.89;97939.06;5063021;28;20047;-79
2023/07/27 07:30:49;;;;;;;2.90;0.65;;;;;;;30.96;27.30;97940.22;5078209;28;20036;-87
2023/07/27 07:33:14;;;;;;;5.07;0.70;;;;;;;32.16;25.63;97945.09;5095508;28;20028;-84
2023/07/27 07:35:40;;;;;;;2.97;0.50;;;;;;;33.26;24.06;97942.22;5094841;28;20028;-78
2023/07/27 07:38:06;;;;;;;5.30;0.82;;;;;;;34.11;22.50;97947.25;5094371;28;20028;-78
2023/07/27 07:40:32;;;;;;;6.20;0.70;;;;;;;33.95;23.35;97954.78;5095049;28;20044;-80
2023/07/27 07:42:57;;;;;;;3.47;0.73;;;;;;;33.72;23.80;97978.84;5093714;28;20502;-78
2023/07/27 07:45:23;;;;;;;3.72;0.60;;;;;;;33.59;24.23;97974.06;5094008;28;20157;-80
2023/07/27 07:47:48;;;;;;;3.83;0.70;;;;;;;33.53;23.93;97976.03;5095232;28;20411;-79
2023/07/27 07:50:14;;;;;;;4.95;0.80;;;;;;;33.38;24.94;97979.69;5076875;28;20036;-80
2023/07/27 07:52:39;;;;;;;3.38;0.70;;;;;;;33.16;25.11;97977.41;5095489;28;20086;-79
2023/07/27 07:55:06;;;;;;;4.38;0.65;;;;;;;32.92;25.63;97977.34;5095267;28;20568;-80
2023/07/27 07:57:32;;;;;;;4.18;0.80;;;;;;;32.60;24.41;97974.00;5094332;28;20028;-79
2023/07/27 07:59:58;;;;;;;1.65;0.60;;;;;;;32.71;24.51;97977.50;5093243;28;20502;-79
2023/07/27 08:02:23;;;;;;;2.65;0.65;;;;;;;32.56;24.83;97985.66;5076495;28;20410;-80
2023/07/27 08:04:49;;;;;;;3.63;0.80;;;;;;;32.41;25.04;97981.16;5093927;28;20172;-88
2023/07/27 08:07:14;;;;;;;5.13;1.02;;;;;;;32.24;25.30;97987.69;5093979;28;20032;-79
2023/07/27 08:09:41;;;;;;;6.13;0.95;;;;;;;32.05;25.71;97976.69;5095464;28;20387;-80
2023/07/27 08:12:06;;;;;;;2.47;0.80;;;;;;;32.04;25.83;97985.06;5093622;28;20065;-80
2023/07/27 08:14:32;;;;;;;5.30;0.85;;;;;;;32.12;25.84;97987.25;5094025;28;20032;-80
2023/07/27 08:16:58;;;;;;;7.88;1.20;;;;;;;32.28;25.71;97977.19;5094905;28;20376;-80
2023/07/27 08:19:23;;;;;;;7.30;0.88;;;;;;;32.38;25.49;97969.00;5060125;28;20073;-81
2023/07/27 08:21:49;;;;;;;2.35;0.73;;;;;;;32.61;25.12;97977.53;5093717;28;20031;-79
2023/07/27 08:24:14;;;;;;;2.15;0.90;;;;;;;32.57;25.15;97981.88;5093479;28;20044;-79
2023/07/27 08:26:40;;;;;;;3.58;1.05;;;;;;;32.94;24.94;97994.09;5077328;28;20039;-79
2023/07/27 08:29:05;;;;;;;4.30;1.10;;;;;;;33.32;24.47;97992.47;5093176;28;20036;-81
2023/07/27 08:31:31;;;;;;;2.80;0.90;;;;;;;33.14;24.71;97993.91;5081265;28;20047;-80
2023/07/27 08:33:56;;;;;;;4.03;0.90;;;;;;;33.52;24.40;97991.44;5096274;28;20031;-80
2023/07/27 08:36:22;;;;;;;7.32;1.02;;;;;;;34.11;24.07;97994.13;5076451;28;20063;-80
2023/07/27 08:38:47;;;;;;;4.55;1.10;;;;;;;34.02;24.11;98001.25;5094180;28;20097;-79
2023/07/27 08:41:12;;;;;;;3.22;0.90;;;;;;;34.34;23.68;97997.91;5094313;28;20055;-78
2023/07/27 08:43:38;;;;;;;4.97;1.00;;;;;;;34.24;24.08;97998.03;5076482;28;20028;-79
2023/07/27 08:46:03;;;;;;;3.10;1.20;;;;;;;34.20;23.90;97989.66;5093150;28;20040;-80
2023/07/27 08:48:29;;;;;;;6.25;1.35;;;;;;;34.29;24.55;97968.19;5076417;28;20028;-78
2023/07/27 08:50:54;;;;;;;1.80;1.00;;;;;;;34.49;24.03;97969.81;5075819;28;20032;-81
2023/07/27 08:53:20;;;;;;;3.72;1.10;;;;;;;34.59;24.18;97966.16;5094010;28;20024;-81
2023/07/27 08:55:45;;;;;;;4.28;1.15;;;;;;;34.84;23.91;97969.59;5075572;28;20506;-80
2023/07/27 08:58:11;;;;;;;3.20;1.02;;;;;;;34.56;24.79;97983.78;5075971;28;20508;-78
2023/07/27 09:00:39;;;;;;;4.90;1.30;;;;;;;34.32;24.87;97996.59;5092726;28;20054;-80
2023/07/27 09:03:07;;;;;;;2.42;1.08;;;;;;;34.13;25.22;98029.81;5076276;28;20028;-79
2023/07/27 09:05:39;;;;;;;5.20;1.30;;;;;;;33.84;25.45;98029.88;5076244;28;20135;-78
2023/07/27 09:08:06;;;;;;;5.22;1.35;;;;;;;33.54;25.90;98048.81;5075624;28;20036;-80
2023/07/27 09:10:32;;;;;;;4.40;1.30;;;;;;;33.25;26.39;98056.88;5094010;28;20096;-79
2023/07/27 09:13:00;;;;;;;2.20;1.10;;;;;;;33.06;27.09;98047.81;5076211;28;20028;-79
2023/07/27 09:15:26;;;;;;;4.85;1.30;;;;;;;33.05;27.11;98047.00;5075178;28;20044;-80
2023/07/27 09:17:52;;;;;;;2.40;1.20;;;;;;;33.00;26.90;98038.91;5092426;28;20032;-81
2023/07/27 09:20:18;;;;;;;4.35;1.38;;;;;;;33.02;27.08;98044.88;5092437;28;20039;-79
2023/07/27 09:22:45;;;;;;;6.13;1.40;;;;;;;32.90;27.61;98025.47;5092007;28;20122;-79
2023/07/27 09:25:10;;;;;;;5.57;1.40;;;;;;;32.88;27.40;98024.94;5092355;28;20052;-82
2023/07/27 09:27:43;;;;;;;3.00;1.38;;;;;;;32.78;27.66;98015.00;5091460;28;20121;-81
2023/07/27 09:30:10;;;;;;;2.90;1.15;;;;;;;32.64;27.66;98022.94;5092277;28;20028;-81
2023/07/27 09:32:35;;;;;;;4.10;1.10;;;;;;;32.57;27.78;98028.59;5092063;28;20035;-80
2023/07/27 09:35:01;;;;;;;4.75;1.20;;;;;;;32.49;27.33;98040.00;5091970;28;20031;-80
2023/07/27 09:37:27;;;;;;;4.80;1.10;;;;;;;32.32;27.14;98048.44;5092259;28;20471;-80
2023/07/27 09:39:52;;;;;;;4.10;0.93;;;;;;;32.22;27.18;98056.56;5058399;28;20032;-82
2023/07/27 09:42:19;;;;;;;4.35;0.90;;;;;;;32.07;27.04;98070.88;5075814;28;20039;-80
2023/07/27 09:44:49;;;;;;;2.60;1.03;;;;;;;31.92;27.14;98060.94;5092155;28;20031;-81
2023/07/27 09:47:21;;;;;;;2.33;0.70;;;;;;;31.78;26.95;98073.38;5092148;28;20031;-79
2023/07/27 09:49:48;;;;;;;3.63;0.82;;;;;;;31.73;27.26;98061.50;5108492;28;20039;-80
2023/07/27 09:52:14;;;;;;;2.20;0.90;;;;;;;31.65;26.73;98062.06;5074917;28;20036;-80
2023/07/27 09:54:39;;;;;;;2.20;0.80;;;;;;;31.56;26.74;98059.13;5075107;28;20020;-80
2023/07/27 09:57:05;;;;;;;3.80;0.70;;;;;;;31.52;26.58;98068.78;5075175;28;20032;-80
2023/07/27 09:59:30;;;;;;;1.88;0.60;;;;;;;31.41;26.40;98079.81;5092249;28;20028;-79
2023/07/27 10:01:55;;;;;;;0.98;0.60;;;;;;;31.30;26.49;98081.72;5074854;28;20090;-82
2023/07/27 10:04:21;;;;;;;3.08;0.80;;;;;;;31.20;26.29;98077.94;5092828;28;20063;-79
2023/07/27 10:06:47;;;;;;;1.30;0.50;;;;;;;31.16;25.98;98095.72;5092148;28;20335;-80
2023/07/27 10:09:18;;;;;;;1.27;0.50;;;;;;;31.01;26.15;98099.19;5091624;28;20467;-80
2023/07/27 10:11:56;;;;;;;4.82;0.73;;;;;;;30.91;26.86;98098.34;5091653;28;20032;-80
2023/07/27 10:14:24;;;;;;;1.38;0.52;;;;;;;30.79;26.43;98091.28;5091666;28;20107;-80
2023/07/27 10:17:08;;;;;;;1.10;0.60;;;;;;;30.63;26.76;98078.84;5091725;28;20048;-81
2023/07/27 10:19:49;;;;;;;1.67;0.57;;;;;;;30.56;26.41;98080.97;5091612;28;20107;-81
2023/07/27 10:22:16;;;;;;;4.70;0.60;;;;;;;30.49;26.45;98076.66;5091090;28;20032;-81
2023/07/27 10:24:48;;;;;;;2.20;0.47;;;;;;;30.52;26.38;98079.88;5074453;28;20028;-80
2023/07/27 10:27:14;;;;;;;2.38;0.50;;;;;;;30.56;26.16;98084.47;5074753;28;20491;-80
2023/07/27 10:29:39;;;;;;;6.28;0.57;;;;;;;30.59;26.19;98077.75;5091437;28;20077;-81
2023/07/27 10:32:10;;;;;;;1.48;0.50;;;;;;;30.55;26.52;98061.31;5057644;28;20085;-79
2023/07/27 10:34:37;;;;;;;0.75;0.45;;;;;;;30.47;26.32;98067.19;5091678;28;20028;-80
2023/07/27 10:37:03;;;;;;;2.63;0.55;;;;;;;30.41;26.08;98076.31;5091654;28;20123;-82
2023/07/27 10:39:42;;;;;;;8.70;0.70;;;;;;;30.37;26.55;98077.91;5091302;28;20035;-81
2023/07/27 10:42:09;;;;;;;2.45;0.70;;;;;;;30.30;26.36;98064.69;5074467;28;20119;-81
2023/07/27 10:44:53;;;;;;;3.38;0.60;;;;;;;30.33;26.78;98064.16;5073575;28;20074;-80
2023/07/27 10:47:31;;;;;;;1.88;0.50;;;;;;;30.36;26.41;98084.34;5092719;28;20063;-80
2023/07/27 10:49:58;;;;;;;4.53;0.70;;;;;;;30.37;26.89;98064.44;5074396;28;20032;-79
2023/07/27 10:52:32;;;;;;;2.55;0.70;;;;;;;30.45;26.65;98093.59;5073595;28;20457;-81
2023/07/27 10:54:59;;;;;;;0.80;0.55;;;;;;;30.51;26.52;98079.06;5090898;28;20032;-79
2023/07/27 10:57:26;;;;;;;5.05;0.70;;;;;;;30.57;26.88;98082.59;5074592;28;20522;-80
2023/07/27 10:59:52;;;;;;;1.00;0.45;;;;;;;30.60;26.68;98082.06;5091241;28;20050;-83
2023/07/27 11:02:20;;;;;;;1.75;0.75;;;;;;;30.75;26.11;98084.81;5091088;28;20479;-80
2023/07/27 11:04:48;;;;;;;1.73;0.60;;;;;;;30.89;26.17;98073.53;5090784;28;20044;-79
2023/07/27 11:07:23;;;;;;;3.45;0.60;;;;;;;31.05;25.57;98080.59;5090657;28;20092;-80
2023/07/27 11:09:49;;;;;;;2.35;0.63;;;;;;;31.19;24.98;98078.22;5076100;28;20032;-82
2023/07/27 11:12:14;;;;;;;2.38;0.60;;;;;;;31.27;24.59;98072.28;5073718;28;20047;-78
2023/07/27 11:14:40;;;;;;;1.65;0.60;;;;;;;31.35;24.71;98071.75;5090236;28;20040;-80
2023/07/27 11:17:05;;;;;;;1.67;0.57;;;;;;;31.48;24.60;98080.38;5090843;28;20051;-81
2023/07/27 11:19:31;;;;;;;2.25;0.50;;;;;;;31.55;24.39;98078.25;5090902;28;20032;-79
2023/07/27 11:21:56;;;;;;;0.73;0.38;;;;;;;31.67;24.33;98070.69;5073997;28;20406;-79
2023/07/27 11:24:22;;;;;;;2.88;0.50;;;;;;;31.80;24.27;98068.50;5057019;28;20040;-80
2023/07/27 11:26:47;;;;;;;1.15;0.50;;;;;;;31.92;24.16;98083.34;5056743;28;20052;-81
2023/07/27 11:29:13;;;;;;;1.73;0.40;;;;;;;32.01;23.99;98075.50;5091956;28;20392;-80
2023/07/27 11:31:38;;;;;;;0.77;0.40;;;;;;;32.11;23.63;98066.59;5090606;28;20039;-78